Ben Arnold, Texas
Current Conditions -  °F | °C
As of 7:55 AM on Thursday 29 Jan 2015 (Local Time) from KT35 Reporting Station
Overcast Overcast  
Wind Chill: 15°   Ceiling: 500
Heat Index: 15°   Visibility: 7mi
Dew Point: 14°   Wind: 6mph
Humidity: 95%   Direction: 220°SW
Pressure: 30.21"   Gusts: NA
Location:  30.9882°N, 97.103°W
Report Text: KT35 291355Z AUTO 22005KT 7SM OVC005 15/14 A3021 RMK AO2 T01460138
Loading
Personal Weather Stations






























Interactive Weather Map New forecast layout! Learn more

10-Day Weather Forecast

Advertisements
Track Severe Weather on mobile